sensor_id;sensor_type;location;lat;lon;timestamp;temperature;humidity
32787;DHT22;19139;49.372;8.580;2023-06-04T00:02:25;25.20;75.50
32787;DHT22;19139;49.372;8.580;2023-06-04T00:04:52;25.20;75.50
32787;DHT22;19139;49.372;8.580;2023-06-04T00:07:19;25.20;75.50
32787;DHT22;19139;49.372;8.580;2023-06-04T00:09:45;25.20;75.50
32787;DHT22;19139;49.372;8.580;2023-06-04T00:12:14;25.20;75.50
32787;DHT22;19139;49.372;8.580;2023-06-04T00:14:41;25.20;75.50
32787;DHT22;19139;49.372;8.580;2023-06-04T00:17:08;25.20;75.50
32787;DHT22;19139;49.372;8.580;2023-06-04T00:19:37;25.20;75.50
32787;DHT22;19139;49.372;8.580;2023-06-04T00:22:04;25.20;75.40
32787;DHT22;19139;49.372;8.580;2023-06-04T00:24:32;25.20;75.40
32787;DHT22;19139;49.372;8.580;2023-06-04T00:26:59;25.20;75.40
32787;DHT22;19139;49.372;8.580;2023-06-04T00:29:26;25.20;75.40
32787;DHT22;19139;49.372;8.580;2023-06-04T00:31:52;25.20;75.30
32787;DHT22;19139;49.372;8.580;2023-06-04T00:34:19;25.20;75.50
32787;DHT22;19139;49.372;8.580;2023-06-04T00:36:46;25.20;75.30
32787;DHT22;19139;49.372;8.580;2023-06-04T00:39:12;25.20;75.20
32787;DHT22;19139;49.372;8.580;2023-06-04T00:41:39;25.20;75.30
32787;DHT22;19139;49.372;8.580;2023-06-04T00:44:06;25.20;75.30
32787;DHT22;19139;49.372;8.580;2023-06-04T00:46:34;25.20;75.30
32787;DHT22;19139;49.372;8.580;2023-06-04T00:49:02;25.20;75.30
32787;DHT22;19139;49.372;8.580;2023-06-04T00:51:30;25.20;75.30
32787;DHT22;19139;49.372;8.580;2023-06-04T00:53:58;25.20;75.30
32787;DHT22;19139;49.372;8.580;2023-06-04T00:56:25;25.20;75.20
32787;DHT22;19139;49.372;8.580;2023-06-04T00:58:52;25.20;75.20
32787;DHT22;19139;49.372;8.580;2023-06-04T01:01:33;25.20;75.10
32787;DHT22;19139;49.372;8.580;2023-06-04T01:04:01;25.20;75.00
32787;DHT22;19139;49.372;8.580;2023-06-04T01:06:42;25.20;75.00
32787;DHT22;19139;49.372;8.580;2023-06-04T01:09:10;25.20;75.00
32787;DHT22;19139;49.372;8.580;2023-06-04T01:11:38;25.20;75.00
32787;DHT22;19139;49.372;8.580;2023-06-04T01:14:07;25.20;74.90
32787;DHT22;19139;49.372;8.580;2023-06-04T01:16:49;25.20;74.90
32787;DHT22;19139;49.372;8.580;2023-06-04T01:22:33;25.20;74.80
32787;DHT22;19139;49.372;8.580;2023-06-04T01:25:14;25.20;74.90
32787;DHT22;19139;49.372;8.580;2023-06-04T01:27:48;25.20;74.80
32787;DHT22;19139;49.372;8.580;2023-06-04T01:30:17;25.20;74.90
32787;DHT22;19139;49.372;8.580;2023-06-04T01:32:44;25.20;74.90
32787;DHT22;19139;49.372;8.580;2023-06-04T01:35:13;25.20;74.80
32787;DHT22;19139;49.372;8.580;2023-06-04T01:37:40;25.20;74.90
32787;DHT22;19139;49.372;8.580;2023-06-04T01:40:07;25.20;75.00
32787;DHT22;19139;49.372;8.580;2023-06-04T01:42:35;25.20;74.90
32787;DHT22;19139;49.372;8.580;2023-06-04T01:45:02;25.20;74.80
32787;DHT22;19139;49.372;8.580;2023-06-04T01:47:29;25.20;74.60
32787;DHT22;19139;49.372;8.580;2023-06-04T01:49:55;25.20;74.60
32787;DHT22;19139;49.372;8.580;2023-06-04T01:52:22;25.20;74.60
32787;DHT22;19139;49.372;8.580;2023-06-04T01:54:48;25.20;74.50
32787;DHT22;19139;49.372;8.580;2023-06-04T01:57:20;25.20;74.60
32787;DHT22;19139;49.372;8.580;2023-06-04T01:59:48;25.20;74.60
32787;DHT22;19139;49.372;8.580;2023-06-04T02:02:15;25.20;74.70
32787;DHT22;19139;49.372;8.580;2023-06-04T02:04:42;25.20;74.80
32787;DHT22;19139;49.372;8.580;2023-06-04T02:07:09;25.20;74.80
32787;DHT22;19139;49.372;8.580;2023-06-04T02:09:36;25.20;74.70
32787;DHT22;19139;49.372;8.580;2023-06-04T02:12:03;25.20;74.70
32787;DHT22;19139;49.372;8.580;2023-06-04T02:14:30;25.20;74.80
32787;DHT22;19139;49.372;8.580;2023-06-04T02:16:57;25.20;74.80
32787;DHT22;19139;49.372;8.580;2023-06-04T02:19:27;25.20;74.60
32787;DHT22;19139;49.372;8.580;2023-06-04T02:21:54;25.20;74.50
32787;DHT22;19139;49.372;8.580;2023-06-04T02:24:21;25.20;74.30
32787;DHT22;19139;49.372;8.580;2023-06-04T02:26:48;25.20;74.20
32787;DHT22;19139;49.372;8.580;2023-06-04T02:29:15;25.20;74.50
32787;DHT22;19139;49.372;8.580;2023-06-04T02:31:42;25.20;74.80
32787;DHT22;19139;49.372;8.580;2023-06-04T02:34:08;25.20;74.80
32787;DHT22;19139;49.372;8.580;2023-06-04T02:36:35;25.20;74.80
32787;DHT22;19139;49.372;8.580;2023-06-04T02:39:01;25.20;74.80
32787;DHT22;19139;49.372;8.580;2023-06-04T02:41:29;25.20;75.00
32787;DHT22;19139;49.372;8.580;2023-06-04T02:43:55;25.10;74.80
32787;DHT22;19139;49.372;8.580;2023-06-04T02:46:22;25.20;74.80
32787;DHT22;19139;49.372;8.580;2023-06-04T02:48:49;25.20;74.90
32787;DHT22;19139;49.372;8.580;2023-06-04T02:51:15;25.20;74.90
32787;DHT22;19139;49.372;8.580;2023-06-04T02:53:43;25.20;75.00
32787;DHT22;19139;49.372;8.580;2023-06-04T02:56:11;25.20;75.00
32787;DHT22;19139;49.372;8.580;2023-06-04T02:58:51;25.20;75.00
32787;DHT22;19139;49.372;8.580;2023-06-04T03:01:22;25.20;75.00
32787;DHT22;19139;49.372;8.580;2023-06-04T03:03:50;25.20;75.00
32787;DHT22;19139;49.372;8.580;2023-06-04T03:06:18;25.20;75.00
32787;DHT22;19139;49.372;8.580;2023-06-04T03:08:48;25.20;75.00
32787;DHT22;19139;49.372;8.580;2023-06-04T03:11:15;25.20;75.00
32787;DHT22;19139;49.372;8.580;2023-06-04T03:13:42;25.20;75.00
32787;DHT22;19139;49.372;8.580;2023-06-04T03:16:09;25.10;74.90
32787;DHT22;19139;49.372;8.580;2023-06-04T03:18:42;25.10;74.90
32787;DHT22;19139;49.372;8.580;2023-06-04T03:21:09;25.10;75.00
32787;DHT22;19139;49.372;8.580;2023-06-04T03:23:38;25.10;74.80
32787;DHT22;19139;49.372;8.580;2023-06-04T03:26:05;25.10;74.90
32787;DHT22;19139;49.372;8.580;2023-06-04T03:28:33;25.10;74.80
32787;DHT22;19139;49.372;8.580;2023-06-04T03:30:59;25.20;74.90
32787;DHT22;19139;49.372;8.580;2023-06-04T03:33:26;25.10;74.80
32787;DHT22;19139;49.372;8.580;2023-06-04T03:35:53;25.10;74.90
32787;DHT22;19139;49.372;8.580;2023-06-04T03:38:19;25.10;74.80
32787;DHT22;19139;49.372;8.580;2023-06-04T03:40:46;25.10;74.80
32787;DHT22;19139;49.372;8.580;2023-06-04T03:43:13;25.10;74.80
32787;DHT22;19139;49.372;8.580;2023-06-04T03:45:41;25.10;74.80
32787;DHT22;19139;49.372;8.580;2023-06-04T03:48:08;25.10;74.80
32787;DHT22;19139;49.372;8.580;2023-06-04T03:50:35;25.10;74.80
32787;DHT22;19139;49.372;8.580;2023-06-04T03:53:02;25.10;74.80
32787;DHT22;19139;49.372;8.580;2023-06-04T03:55:31;25.10;75.70
32787;DHT22;19139;49.372;8.580;2023-06-04T03:58:01;25.10;74.80
32787;DHT22;19139;49.372;8.580;2023-06-04T04:00:28;25.10;74.80
32787;DHT22;19139;49.372;8.580;2023-06-04T04:02:54;25.10;74.80
32787;DHT22;19139;49.372;8.580;2023-06-04T04:05:23;25.10;74.80
32787;DHT22;19139;49.372;8.580;2023-06-04T04:07:49;25.10;74.80
32787;DHT22;19139;49.372;8.580;2023-06-04T04:10:16;25.10;74.80
32787;DHT22;19139;49.372;8.580;2023-06-04T04:12:43;25.10;74.80
32787;DHT22;19139;49.372;8.580;2023-06-04T04:15:10;25.10;74.80
32787;DHT22;19139;49.372;8.580;2023-06-04T04:17:37;25.10;74.80
32787;DHT22;19139;49.372;8.580;2023-06-04T04:20:04;25.10;74.70
32787;DHT22;19139;49.372;8.580;2023-06-04T04:22:32;25.10;74.70
32787;DHT22;19139;49.372;8.580;2023-06-04T04:24:59;25.10;74.70
32787;DHT22;19139;49.372;8.580;2023-06-04T04:27:27;25.10;74.70
32787;DHT22;19139;49.372;8.580;2023-06-04T04:29:56;25.10;75.40
32787;DHT22;19139;49.372;8.580;2023-06-04T04:32:26;25.10;74.80
32787;DHT22;19139;49.372;8.580;2023-06-04T04:34:54;25.10;74.60
32787;DHT22;19139;49.372;8.580;2023-06-04T04:37:21;25.10;74.60
32787;DHT22;19139;49.372;8.580;2023-06-04T04:39:49;25.10;74.60
32787;DHT22;19139;49.372;8.580;2023-06-04T04:42:19;25.10;74.60
32787;DHT22;19139;49.372;8.580;2023-06-04T04:44:46;25.10;74.60
32787;DHT22;19139;49.372;8.580;2023-06-04T04:47:15;25.10;74.60
32787;DHT22;19139;49.372;8.580;2023-06-04T04:49:42;25.10;74.60
32787;DHT22;19139;49.372;8.580;2023-06-04T04:52:08;25.10;74.60
32787;DHT22;19139;49.372;8.580;2023-06-04T04:54:35;25.10;74.50
32787;DHT22;19139;49.372;8.580;2023-06-04T04:57:02;25.10;74.60
32787;DHT22;19139;49.372;8.580;2023-06-04T04:59:39;25.10;74.40
32787;DHT22;19139;49.372;8.580;2023-06-04T05:02:06;25.10;74.40
32787;DHT22;19139;49.372;8.580;2023-06-04T05:04:33;25.10;74.40
32787;DHT22;19139;49.372;8.580;2023-06-04T05:07:00;25.10;74.40
32787;DHT22;19139;49.372;8.580;2023-06-04T05:09:27;25.10;74.30
32787;DHT22;19139;49.372;8.580;2023-06-04T05:11:53;25.10;74.30
32787;DHT22;19139;49.372;8.580;2023-06-04T05:14:20;25.10;74.20
32787;DHT22;19139;49.372;8.580;2023-06-04T05:16:47;25.10;74.20
32787;DHT22;19139;49.372;8.580;2023-06-04T05:19:18;25.10;74.20
32787;DHT22;19139;49.372;8.580;2023-06-04T05:21:45;25.10;74.20
32787;DHT22;19139;49.372;8.580;2023-06-04T05:24:15;25.10;74.20
32787;DHT22;19139;49.372;8.580;2023-06-04T05:26:42;25.10;74.20
32787;DHT22;19139;49.372;8.580;2023-06-04T05:29:09;25.10;74.20
32787;DHT22;19139;49.372;8.580;2023-06-04T05:31:35;25.10;74.10
32787;DHT22;19139;49.372;8.580;2023-06-04T05:34:03;25.10;74.10
32787;DHT22;19139;49.372;8.580;2023-06-04T05:36:32;25.10;74.10
32787;DHT22;19139;49.372;8.580;2023-06-04T05:38:59;25.20;74.20
32787;DHT22;19139;49.372;8.580;2023-06-04T05:41:27;25.10;74.20
32787;DHT22;19139;49.372;8.580;2023-06-04T05:43:53;25.10;74.10
32787;DHT22;19139;49.372;8.580;2023-06-04T05:46:20;25.10;74.10
32787;DHT22;19139;49.372;8.580;2023-06-04T05:48:48;25.10;74.00
32787;DHT22;19139;49.372;8.580;2023-06-04T05:51:15;25.10;74.10
32787;DHT22;19139;49.372;8.580;2023-06-04T05:53:41;25.10;74.10
32787;DHT22;19139;49.372;8.580;2023-06-04T05:56:08;25.10;74.00
32787;DHT22;19139;49.372;8.580;2023-06-04T05:58:35;25.10;74.00
32787;DHT22;19139;49.372;8.580;2023-06-04T06:01:02;25.10;74.10
32787;DHT22;19139;49.372;8.580;2023-06-04T06:03:29;25.10;74.00
32787;DHT22;19139;49.372;8.580;2023-06-04T06:05:57;25.10;74.00
32787;DHT22;19139;49.372;8.580;2023-06-04T06:08:25;25.10;74.00
32787;DHT22;19139;49.372;8.580;2023-06-04T06:10:51;25.10;74.00
32787;DHT22;19139;49.372;8.580;2023-06-04T06:13:18;25.10;74.10
32787;DHT22;19139;49.372;8.580;2023-06-04T06:15:46;25.10;74.00
32787;DHT22;19139;49.372;8.580;2023-06-04T06:18:13;25.10;74.00
32787;DHT22;19139;49.372;8.580;2023-06-04T06:20:40;25.10;74.00
32787;DHT22;19139;49.372;8.580;2023-06-04T06:23:07;25.10;74.00
32787;DHT22;19139;49.372;8.580;2023-06-04T06:25:34;25.10;74.00
32787;DHT22;19139;49.372;8.580;2023-06-04T06:28:01;25.10;74.00
32787;DHT22;19139;49.372;8.580;2023-06-04T06:30:27;25.10;74.00
32787;DHT22;19139;49.372;8.580;2023-06-04T06:32:54;25.10;74.00
32787;DHT22;19139;49.372;8.580;2023-06-04T06:35:22;25.10;74.00
32787;DHT22;19139;49.372;8.580;2023-06-04T06:37:49;25.10;74.00
32787;DHT22;19139;49.372;8.580;2023-06-04T06:40:15;25.10;74.00
32787;DHT22;19139;49.372;8.580;2023-06-04T06:42:48;25.10;74.00
32787;DHT22;19139;49.372;8.580;2023-06-04T06:45:17;25.10;74.00
32787;DHT22;19139;49.372;8.580;2023-06-04T06:47:45;25.10;74.00
32787;DHT22;19139;49.372;8.580;2023-06-04T06:50:12;25.10;74.00
32787;DHT22;19139;49.372;8.580;2023-06-04T06:52:38;25.10;74.00
32787;DHT22;19139;49.372;8.580;2023-06-04T06:55:05;25.10;74.00
32787;DHT22;19139;49.372;8.580;2023-06-04T06:57:32;25.10;74.00
32787;DHT22;19139;49.372;8.580;2023-06-04T07:00:00;25.10;74.00
32787;DHT22;19139;49.372;8.580;2023-06-04T07:02:27;25.10;74.00
32787;DHT22;19139;49.372;8.580;2023-06-04T07:04:53;25.00;74.00
32787;DHT22;19139;49.372;8.580;2023-06-04T07:07:20;25.10;74.00
32787;DHT22;19139;49.372;8.580;2023-06-04T07:09:47;25.10;74.00
32787;DHT22;19139;49.372;8.580;2023-06-04T07:12:13;25.00;73.90
32787;DHT22;19139;49.372;8.580;2023-06-04T07:14:40;25.10;74.00
32787;DHT22;19139;49.372;8.580;2023-06-04T07:17:07;25.10;74.00
32787;DHT22;19139;49.372;8.580;2023-06-04T07:19:34;25.10;74.00
32787;DHT22;19139;49.372;8.580;2023-06-04T07:22:01;25.00;74.00
32787;DHT22;19139;49.372;8.580;2023-06-04T07:24:27;25.10;74.00
32787;DHT22;19139;49.372;8.580;2023-06-04T07:26:54;25.00;73.90
32787;DHT22;19139;49.372;8.580;2023-06-04T07:29:21;25.10;74.00
32787;DHT22;19139;49.372;8.580;2023-06-04T07:31:47;25.00;73.90
32787;DHT22;19139;49.372;8.580;2023-06-04T07:34:14;25.00;74.00
32787;DHT22;19139;49.372;8.580;2023-06-04T07:36:41;25.00;74.00
32787;DHT22;19139;49.372;8.580;2023-06-04T07:39:08;25.00;74.00
32787;DHT22;19139;49.372;8.580;2023-06-04T07:41:34;25.00;74.00
32787;DHT22;19139;49.372;8.580;2023-06-04T07:44:01;25.00;74.00
32787;DHT22;19139;49.372;8.580;2023-06-04T07:46:28;25.00;74.00
32787;DHT22;19139;49.372;8.580;2023-06-04T07:48:54;25.00;74.20
32787;DHT22;19139;49.372;8.580;2023-06-04T07:51:21;25.00;74.10
32787;DHT22;19139;49.372;8.580;2023-06-04T07:53:49;25.00;74.20
32787;DHT22;19139;49.372;8.580;2023-06-04T07:56:16;25.00;74.20
32787;DHT22;19139;49.372;8.580;2023-06-04T07:58:44;25.00;74.10
32787;DHT22;19139;49.372;8.580;2023-06-04T08:01:11;25.00;74.20
32787;DHT22;19139;49.372;8.580;2023-06-04T08:03:38;25.00;74.20
32787;DHT22;19139;49.372;8.580;2023-06-04T08:06:07;25.00;74.20
32787;DHT22;19139;49.372;8.580;2023-06-04T08:08:34;25.00;74.20
32787;DHT22;19139;49.372;8.580;2023-06-04T08:11:00;25.00;74.30
32787;DHT22;19139;49.372;8.580;2023-06-04T08:13:27;25.00;74.20
32787;DHT22;19139;49.372;8.580;2023-06-04T08:15:54;25.00;74.20
32787;DHT22;19139;49.372;8.580;2023-06-04T08:18:20;25.00;75.00
32787;DHT22;19139;49.372;8.580;2023-06-04T08:20:47;25.00;74.40
32787;DHT22;19139;49.372;8.580;2023-06-04T08:23:14;25.00;74.40
32787;DHT22;19139;49.372;8.580;2023-06-04T08:25:41;25.00;74.40
32787;DHT22;19139;49.372;8.580;2023-06-04T08:28:07;25.00;74.40
32787;DHT22;19139;49.372;8.580;2023-06-04T08:30:35;25.00;74.40
32787;DHT22;19139;49.372;8.580;2023-06-04T08:33:02;25.00;74.40
32787;DHT22;19139;49.372;8.580;2023-06-04T08:35:29;25.00;74.40
32787;DHT22;19139;49.372;8.580;2023-06-04T08:37:56;25.00;74.40
32787;DHT22;19139;49.372;8.580;2023-06-04T08:40:22;25.00;74.40
32787;DHT22;19139;49.372;8.580;2023-06-04T08:42:50;25.00;74.40
32787;DHT22;19139;49.372;8.580;2023-06-04T08:45:19;25.00;74.50
32787;DHT22;19139;49.372;8.580;2023-06-04T08:47:50;25.00;74.40
32787;DHT22;19139;49.372;8.580;2023-06-04T08:50:19;25.00;74.50
32787;DHT22;19139;49.372;8.580;2023-06-04T08:52:46;25.00;74.50
32787;DHT22;19139;49.372;8.580;2023-06-04T08:55:14;25.00;74.40
32787;DHT22;19139;49.372;8.580;2023-06-04T08:57:41;25.00;74.40
32787;DHT22;19139;49.372;8.580;2023-06-04T09:00:08;25.00;74.50
32787;DHT22;19139;49.372;8.580;2023-06-04T09:02:38;25.00;74.40
32787;DHT22;19139;49.372;8.580;2023-06-04T09:05:06;25.00;74.40
32787;DHT22;19139;49.372;8.580;2023-06-04T09:07:37;25.00;74.40
32787;DHT22;19139;49.372;8.580;2023-06-04T09:10:06;25.00;74.50
32787;DHT22;19139;49.372;8.580;2023-06-04T09:12:42;25.00;74.50
32787;DHT22;19139;49.372;8.580;2023-06-04T09:15:10;25.00;74.50
32787;DHT22;19139;49.372;8.580;2023-06-04T09:17:37;25.00;74.50
32787;DHT22;19139;49.372;8.580;2023-06-04T09:20:05;25.00;74.50
32787;DHT22;19139;49.372;8.580;2023-06-04T09:22:36;25.00;74.60
32787;DHT22;19139;49.372;8.580;2023-06-04T09:25:06;25.00;74.50
32787;DHT22;19139;49.372;8.580;2023-06-04T09:27:38;25.00;74.60
32787;DHT22;19139;49.372;8.580;2023-06-04T09:30:06;25.00;74.60
32787;DHT22;19139;49.372;8.580;2023-06-04T09:32:36;25.00;74.60
32787;DHT22;19139;49.372;8.580;2023-06-04T09:35:17;25.00;74.60
32787;DHT22;19139;49.372;8.580;2023-06-04T09:37:54;25.00;74.60
32787;DHT22;19139;49.372;8.580;2023-06-04T09:40:22;25.00;74.60
32787;DHT22;19139;49.372;8.580;2023-06-04T09:42:50;25.00;74.60
32787;DHT22;19139;49.372;8.580;2023-06-04T09:45:28;25.00;74.60
32787;DHT22;19139;49.372;8.580;2023-06-04T09:47:55;25.00;74.80
32787;DHT22;19139;49.372;8.580;2023-06-04T09:50:27;25.00;74.70
32787;DHT22;19139;49.372;8.580;2023-06-04T09:52:54;25.00;74.60
32787;DHT22;19139;49.372;8.580;2023-06-04T09:55:21;25.00;74.60
32787;DHT22;19139;49.372;8.580;2023-06-04T09:57:50;25.10;74.70
32787;DHT22;19139;49.372;8.580;2023-06-04T10:00:18;25.00;74.70
32787;DHT22;19139;49.372;8.580;2023-06-04T10:02:48;25.00;74.60
32787;DHT22;19139;49.372;8.580;2023-06-04T10:05:16;25.00;74.60
32787;DHT22;19139;49.372;8.580;2023-06-04T10:07:43;25.00;74.70
32787;DHT22;19139;49.372;8.580;2023-06-04T10:10:19;25.00;74.60
32787;DHT22;19139;49.372;8.580;2023-06-04T10:12:50;25.10;74.70
32787;DHT22;19139;49.372;8.580;2023-06-04T10:15:19;25.10;74.70
32787;DHT22;19139;49.372;8.580;2023-06-04T10:17:47;25.00;74.70
32787;DHT22;19139;49.372;8.580;2023-06-04T10:20:14;25.10;74.80
32787;DHT22;19139;49.372;8.580;2023-06-04T10:22:42;25.00;74.60
32787;DHT22;19139;49.372;8.580;2023-06-04T10:25:09;25.00;74.70
32787;DHT22;19139;49.372;8.580;2023-06-04T10:27:36;25.00;74.70
32787;DHT22;19139;49.372;8.580;2023-06-04T10:30:04;25.00;74.70
32787;DHT22;19139;49.372;8.580;2023-06-04T10:32:31;25.10;74.80
32787;DHT22;19139;49.372;8.580;2023-06-04T10:34:58;25.10;74.60
32787;DHT22;19139;49.372;8.580;2023-06-04T10:37:31;25.10;74.80
32787;DHT22;19139;49.372;8.580;2023-06-04T10:39:58;25.10;74.80
32787;DHT22;19139;49.372;8.580;2023-06-04T10:42:25;25.10;74.80
32787;DHT22;19139;49.372;8.580;2023-06-04T10:44:53;25.10;74.90
32787;DHT22;19139;49.372;8.580;2023-06-04T10:47:27;25.10;75.00
32787;DHT22;19139;49.372;8.580;2023-06-04T10:50:08;25.10;74.80
32787;DHT22;19139;49.372;8.580;2023-06-04T10:52:58;25.10;74.90
32787;DHT22;19139;49.372;8.580;2023-06-04T10:55:25;25.10;74.90
32787;DHT22;19139;49.372;8.580;2023-06-04T10:57:52;25.10;74.80
32787;DHT22;19139;49.372;8.580;2023-06-04T11:00:20;25.10;74.80
32787;DHT22;19139;49.372;8.580;2023-06-04T11:03:05;25.10;74.80
32787;DHT22;19139;49.372;8.580;2023-06-04T11:05:40;25.10;75.00
32787;DHT22;19139;49.372;8.580;2023-06-04T11:08:07;25.10;74.80
32787;DHT22;19139;49.372;8.580;2023-06-04T11:10:38;25.10;75.00
32787;DHT22;19139;49.372;8.580;2023-06-04T11:13:05;25.10;75.00
32787;DHT22;19139;49.372;8.580;2023-06-04T11:15:43;25.10;74.90
32787;DHT22;19139;49.372;8.580;2023-06-04T11:18:14;25.10;74.80
32787;DHT22;19139;49.372;8.580;2023-06-04T11:20:43;25.10;75.00
32787;DHT22;19139;49.372;8.580;2023-06-04T11:23:12;25.10;74.80
32787;DHT22;19139;49.372;8.580;2023-06-04T11:25:39;25.10;74.80
32787;DHT22;19139;49.372;8.580;2023-06-04T11:28:07;25.10;75.10
32787;DHT22;19139;49.372;8.580;2023-06-04T11:30:34;25.10;75.00
32787;DHT22;19139;49.372;8.580;2023-06-04T11:33:04;25.10;74.90
32787;DHT22;19139;49.372;8.580;2023-06-04T11:35:38;25.10;75.00
32787;DHT22;19139;49.372;8.580;2023-06-04T11:38:06;25.10;75.10
32787;DHT22;19139;49.372;8.580;2023-06-04T11:40:35;25.10;74.90
32787;DHT22;19139;49.372;8.580;2023-06-04T11:43:02;25.10;75.00
32787;DHT22;19139;49.372;8.580;2023-06-04T11:45:29;25.10;75.10
32787;DHT22;19139;49.372;8.580;2023-06-04T11:47:57;25.10;75.00
32787;DHT22;19139;49.372;8.580;2023-06-04T11:50:28;25.10;75.00
32787;DHT22;19139;49.372;8.580;2023-06-04T11:52:55;25.10;75.00
32787;DHT22;19139;49.372;8.580;2023-06-04T11:55:22;25.10;75.10
32787;DHT22;19139;49.372;8.580;2023-06-04T11:57:50;25.10;75.00
32787;DHT22;19139;49.372;8.580;2023-06-04T12:00:17;25.10;75.00
32787;DHT22;19139;49.372;8.580;2023-06-04T12:02:55;25.10;75.10
32787;DHT22;19139;49.372;8.580;2023-06-04T12:05:28;25.10;75.00
32787;DHT22;19139;49.372;8.580;2023-06-04T12:08:10;25.10;75.00
32787;DHT22;19139;49.372;8.580;2023-06-04T12:10:42;25.10;75.00
32787;DHT22;19139;49.372;8.580;2023-06-04T12:13:09;25.10;75.00
32787;DHT22;19139;49.372;8.580;2023-06-04T12:15:36;25.10;75.00
32787;DHT22;19139;49.372;8.580;2023-06-04T12:18:03;25.10;75.00
32787;DHT22;19139;49.372;8.580;2023-06-04T12:20:39;25.20;75.00
32787;DHT22;19139;49.372;8.580;2023-06-04T12:23:06;25.20;75.00
32787;DHT22;19139;49.372;8.580;2023-06-04T12:25:34;25.10;74.80
32787;DHT22;19139;49.372;8.580;2023-06-04T12:28:03;25.10;74.80
32787;DHT22;19139;49.372;8.580;2023-06-04T12:30:37;25.10;74.80
32787;DHT22;19139;49.372;8.580;2023-06-04T12:33:04;25.10;74.90
32787;DHT22;19139;49.372;8.580;2023-06-04T12:35:32;25.20;74.90
32787;DHT22;19139;49.372;8.580;2023-06-04T12:37:59;25.20;74.90
32787;DHT22;19139;49.372;8.580;2023-06-04T12:40:26;25.20;74.80
32787;DHT22;19139;49.372;8.580;2023-06-04T12:42:53;25.20;74.80
32787;DHT22;19139;49.372;8.580;2023-06-04T12:45:19;25.20;74.80
32787;DHT22;19139;49.372;8.580;2023-06-04T12:47:46;25.20;74.80
32787;DHT22;19139;49.372;8.580;2023-06-04T12:50:13;25.20;74.70
32787;DHT22;19139;49.372;8.580;2023-06-04T12:52:40;25.20;74.70
32787;DHT22;19139;49.372;8.580;2023-06-04T12:55:08;25.20;75.00
32787;DHT22;19139;49.372;8.580;2023-06-04T12:57:34;25.20;74.60
32787;DHT22;19139;49.372;8.580;2023-06-04T13:00:01;25.20;74.60
32787;DHT22;19139;49.372;8.580;2023-06-04T13:02:28;25.20;74.60
32787;DHT22;19139;49.372;8.580;2023-06-04T13:04:55;25.20;74.60
32787;DHT22;19139;49.372;8.580;2023-06-04T13:07:22;25.20;74.60
32787;DHT22;19139;49.372;8.580;2023-06-04T13:09:53;25.20;74.60
32787;DHT22;19139;49.372;8.580;2023-06-04T13:12:20;25.20;74.60
32787;DHT22;19139;49.372;8.580;2023-06-04T13:14:47;25.20;74.60
32787;DHT22;19139;49.372;8.580;2023-06-04T13:17:13;25.20;74.60
32787;DHT22;19139;49.372;8.580;2023-06-04T13:19:49;25.20;74.60
32787;DHT22;19139;49.372;8.580;2023-06-04T13:22:15;25.20;74.60
32787;DHT22;19139;49.372;8.580;2023-06-04T13:24:42;25.20;74.50
32787;DHT22;19139;49.372;8.580;2023-06-04T13:27:09;25.20;74.60
32787;DHT22;19139;49.372;8.580;2023-06-04T13:29:35;25.20;74.50
32787;DHT22;19139;49.372;8.580;2023-06-04T13:32:02;25.20;74.50
32787;DHT22;19139;49.372;8.580;2023-06-04T13:34:29;25.20;74.40
32787;DHT22;19139;49.372;8.580;2023-06-04T13:36:58;25.20;74.40
32787;DHT22;19139;49.372;8.580;2023-06-04T13:39:25;25.20;74.40
32787;DHT22;19139;49.372;8.580;2023-06-04T13:41:51;25.20;74.40
32787;DHT22;19139;49.372;8.580;2023-06-04T13:44:18;25.20;74.40
32787;DHT22;19139;49.372;8.580;2023-06-04T13:46:46;25.20;74.40
32787;DHT22;19139;49.372;8.580;2023-06-04T13:49:13;25.20;74.40
32787;DHT22;19139;49.372;8.580;2023-06-04T13:51:40;25.20;74.30
32787;DHT22;19139;49.372;8.580;2023-06-04T13:54:06;25.20;74.30
32787;DHT22;19139;49.372;8.580;2023-06-04T13:56:34;25.20;74.30
32787;DHT22;19139;49.372;8.580;2023-06-04T13:59:01;25.20;74.20
32787;DHT22;19139;49.372;8.580;2023-06-04T14:01:28;25.20;74.30
32787;DHT22;19139;49.372;8.580;2023-06-04T14:03:55;25.20;74.20
32787;DHT22;19139;49.372;8.580;2023-06-04T14:06:21;25.30;74.30
32787;DHT22;19139;49.372;8.580;2023-06-04T14:08:48;25.20;74.20
32787;DHT22;19139;49.372;8.580;2023-06-04T14:11:15;25.30;74.30
32787;DHT22;19139;49.372;8.580;2023-06-04T14:13:41;25.20;74.20
32787;DHT22;19139;49.372;8.580;2023-06-04T14:16:11;25.30;74.30
32787;DHT22;19139;49.372;8.580;2023-06-04T14:18:38;25.20;74.20
32787;DHT22;19139;49.372;8.580;2023-06-04T14:21:04;25.30;74.30
32787;DHT22;19139;49.372;8.580;2023-06-04T14:23:32;25.30;74.20
32787;DHT22;19139;49.372;8.580;2023-06-04T14:25:58;25.20;74.10
32787;DHT22;19139;49.372;8.580;2023-06-04T14:28:25;25.30;74.20
32787;DHT22;19139;49.372;8.580;2023-06-04T14:30:52;25.30;74.20
32787;DHT22;19139;49.372;8.580;2023-06-04T14:33:18;25.30;74.10
32787;DHT22;19139;49.372;8.580;2023-06-04T14:35:45;25.30;74.20
32787;DHT22;19139;49.372;8.580;2023-06-04T14:38:14;25.30;74.10
32787;DHT22;19139;49.372;8.580;2023-06-04T14:40:42;25.30;74.10
32787;DHT22;19139;49.372;8.580;2023-06-04T14:43:11;25.30;74.10
32787;DHT22;19139;49.372;8.580;2023-06-04T14:45:38;25.30;74.10
32787;DHT22;19139;49.372;8.580;2023-06-04T14:48:06;25.30;74.10
32787;DHT22;19139;49.372;8.580;2023-06-04T14:50:41;25.30;74.10
32787;DHT22;19139;49.372;8.580;2023-06-04T14:53:08;25.30;74.10
32787;DHT22;19139;49.372;8.580;2023-06-04T14:55:36;25.30;74.10
32787;DHT22;19139;49.372;8.580;2023-06-04T14:58:03;25.30;74.10
32787;DHT22;19139;49.372;8.580;2023-06-04T15:00:31;25.30;74.10
32787;DHT22;19139;49.372;8.580;2023-06-04T15:02:58;25.30;74.10
32787;DHT22;19139;49.372;8.580;2023-06-04T15:05:29;25.30;74.10
32787;DHT22;19139;49.372;8.580;2023-06-04T15:07:55;25.30;73.90
32787;DHT22;19139;49.372;8.580;2023-06-04T15:10:22;25.30;74.00
32787;DHT22;19139;49.372;8.580;2023-06-04T15:12:49;25.30;74.10
32787;DHT22;19139;49.372;8.580;2023-06-04T15:15:15;25.30;74.00
32787;DHT22;19139;49.372;8.580;2023-06-04T15:17:42;25.30;73.90
32787;DHT22;19139;49.372;8.580;2023-06-04T15:20:13;25.30;73.90
32787;DHT22;19139;49.372;8.580;2023-06-04T15:22:40;25.30;73.90
32787;DHT22;19139;49.372;8.580;2023-06-04T15:25:07;25.30;73.90
32787;DHT22;19139;49.372;8.580;2023-06-04T15:27:34;25.30;73.90
32787;DHT22;19139;49.372;8.580;2023-06-04T15:30:01;25.30;73.80
32787;DHT22;19139;49.372;8.580;2023-06-04T15:32:28;25.30;73.80
32787;DHT22;19139;49.372;8.580;2023-06-04T15:34:55;25.30;73.80
32787;DHT22;19139;49.372;8.580;2023-06-04T15:37:21;25.30;73.70
32787;DHT22;19139;49.372;8.580;2023-06-04T15:39:48;25.30;73.70